Spofford, NH (03462)

4:25 PM EDT on August 26, 2016 (GMT -0400)
APRSWXNET | | Change Station

Elev 1099 ft 42.91 °N, 72.39 °W | Updated 22 minutes ago

Scattered Clouds
Scattered Clouds
83 °F
Feels Like 86 °F
N
2
Wind Variable Wind from WNW
Gusts 0.0 mph

Today
High -- | Low -- °F
--% Chance of Precip.
Yesterday
High -- | Low -- °F
Precip. -- in
Pressure 30.02 in
Visibility 10.0 miles
Clouds Few 4200 ft
Scattered Clouds 4900 ft
Scattered Clouds 5500 ft
Heat Index 86 °F
Dew Point 69 °F
Humidity 62%
Rainfall in
Snow Depth Not available.
6:08 AM 7:33 PM
Waning Crescent, 31% visible
METAR KEEN 261956Z AUTO 31005KT 10SM FEW042 SCT049 SCT055 29/21 A2999 RMK AO2 SLP166 T02940206
Pressure 30.02 in
Visibility 10.0 miles
Clouds Few 4200 ft
Scattered Clouds 4900 ft
Scattered Clouds 5500 ft
Heat Index 86 °F
Dew Point 69 °F
Humidity 62%
Rainfall in
Snow Depth Not available.
6:08 AM 7:33 PM
Waning Crescent, 31% visible
METAR KEEN 261956Z AUTO 31005KT 10SM FEW042 SCT049 SCT055 29/21 A2999 RMK AO2 SLP166 T02940206

10-Day Weather Forecast

Almanac

Astronomy

Aug. 26, 2016 Rise Set
Actual Time
Civil Twilight
Nautical Twilight
Astronomical Twilight
Moon
Length of Visible Light
Length of Day
Tomorrow will be .
, % of the Moon is Illuminated

Today's Extremes

State Highs State Lows

Community

WunderPhotos

Upload Photos

1,935,192 photos uploaded!

WunderBlog® & News

Nearby

Air Quality

  Air Quality AQ Index Pollutant
Not available.

Snow Depth

Station Depth Elevation

Earthquake Activity

City Distance Mag. Time & Date
Minimum magnitude displayed is 2.5.

Coastal Water Temperatures

Place Temperature

Stations

Nearby Weather Stations

Station Location Temp. Windchill Dew Point Humidity Wind Precip. Elev Updated Type
                   

Watches & Warnings

There are currently no watches in effect.